sensor_id;sensor_type;location;lat;lon;timestamp;pressure;altitude;pressure_sealevel;temperature;humidity
53340;BME280;46212;50.258;19.062;2023-11-21T00:00:32;97621.84;;;8.17;100.00
53340;BME280;46212;50.258;19.062;2023-11-21T00:02:57;97635.75;;;8.22;100.00
53340;BME280;46212;50.258;19.062;2023-11-21T00:05:23;97639.09;;;8.26;100.00
53340;BME280;46212;50.258;19.062;2023-11-21T00:07:48;97650.25;;;8.23;100.00
53340;BME280;46212;50.258;19.062;2023-11-21T00:10:14;97647.06;;;8.15;100.00
53340;BME280;46212;50.258;19.062;2023-11-21T00:12:39;97652.41;;;8.19;100.00
53340;BME280;46212;50.258;19.062;2023-11-21T00:15:07;97649.25;;;8.02;100.00
53340;BME280;46212;50.258;19.062;2023-11-21T00:17:39;97640.06;;;7.96;100.00
53340;BME280;46212;50.258;19.062;2023-11-21T00:20:06;97655.91;;;8.19;100.00
53340;BME280;46212;50.258;19.062;2023-11-21T00:22:35;97658.59;;;7.95;100.00
53340;BME280;46212;50.258;19.062;2023-11-21T00:25:01;97652.63;;;7.88;100.00
53340;BME280;46212;50.258;19.062;2023-11-21T00:27:26;97656.88;;;7.98;100.00
53340;BME280;46212;50.258;19.062;2023-11-21T00:29:52;97662.06;;;7.96;100.00
53340;BME280;46212;50.258;19.062;2023-11-21T00:32:17;97652.34;;;7.77;100.00
53340;BME280;46212;50.258;19.062;2023-11-21T00:34:42;97658.91;;;7.79;100.00
53340;BME280;46212;50.258;19.062;2023-11-21T00:37:08;97659.31;;;7.96;100.00
53340;BME280;46212;50.258;19.062;2023-11-21T00:39:33;97663.72;;;8.21;100.00
53340;BME280;46212;50.258;19.062;2023-11-21T00:42:00;97653.97;;;8.11;100.00
53340;BME280;46212;50.258;19.062;2023-11-21T00:44:25;97647.72;;;8.01;100.00
53340;BME280;46212;50.258;19.062;2023-11-21T00:46:50;97661.59;;;8.07;100.00
53340;BME280;46212;50.258;19.062;2023-11-21T00:49:16;97659.31;;;8.14;100.00
53340;BME280;46212;50.258;19.062;2023-11-21T00:51:41;97664.66;;;7.99;100.00
53340;BME280;46212;50.258;19.062;2023-11-21T00:54:07;97652.44;;;8.00;100.00
53340;BME280;46212;50.258;19.062;2023-11-21T00:56:32;97662.09;;;8.05;100.00
53340;BME280;46212;50.258;19.062;2023-11-21T00:58:59;97661.00;;;8.02;100.00
53340;BME280;46212;50.258;19.062;2023-11-21T01:01:24;97661.28;;;8.14;100.00
53340;BME280;46212;50.258;19.062;2023-11-21T01:03:50;97644.66;;;8.08;100.00
53340;BME280;46212;50.258;19.062;2023-11-21T01:06:16;97645.75;;;7.92;100.00
53340;BME280;46212;50.258;19.062;2023-11-21T01:08:41;97658.91;;;7.88;100.00
53340;BME280;46212;50.258;19.062;2023-11-21T01:11:07;97644.50;;;7.93;100.00
53340;BME280;46212;50.258;19.062;2023-11-21T01:13:41;97650.19;;;7.99;100.00
53340;BME280;46212;50.258;19.062;2023-11-21T01:16:07;97650.47;;;8.01;100.00
53340;BME280;46212;50.258;19.062;2023-11-21T01:18:34;97643.72;;;8.11;100.00
53340;BME280;46212;50.258;19.062;2023-11-21T01:21:00;97648.50;;;7.92;100.00
53340;BME280;46212;50.258;19.062;2023-11-21T01:23:26;97644.09;;;7.86;100.00
53340;BME280;46212;50.258;19.062;2023-11-21T01:25:52;97648.81;;;7.94;100.00
53340;BME280;46212;50.258;19.062;2023-11-21T01:28:18;97648.50;;;8.01;100.00
53340;BME280;46212;50.258;19.062;2023-11-21T01:30:44;97644.81;;;8.05;100.00
53340;BME280;46212;50.258;19.062;2023-11-21T01:33:11;97636.91;;;7.88;100.00
53340;BME280;46212;50.258;19.062;2023-11-21T01:35:36;97647.59;;;7.95;100.00
53340;BME280;46212;50.258;19.062;2023-11-21T01:38:01;97656.88;;;7.98;100.00
53340;BME280;46212;50.258;19.062;2023-11-21T01:40:27;97658.59;;;7.77;100.00
53340;BME280;46212;50.258;19.062;2023-11-21T01:42:54;97663.94;;;7.81;100.00
53340;BME280;46212;50.258;19.062;2023-11-21T01:45:19;97661.94;;;7.81;100.00
53340;BME280;46212;50.258;19.062;2023-11-21T01:47:45;97670.78;;;7.94;100.00
53340;BME280;46212;50.258;19.062;2023-11-21T01:50:15;97677.81;;;7.95;100.00
53340;BME280;46212;50.258;19.062;2023-11-21T01:52:43;97655.09;;;7.68;100.00
53340;BME280;46212;50.258;19.062;2023-11-21T01:55:10;97675.06;;;7.86;100.00
53340;BME280;46212;50.258;19.062;2023-11-21T01:57:36;97675.69;;;7.81;100.00
53340;BME280;46212;50.258;19.062;2023-11-21T02:00:05;97674.16;;;7.89;100.00
53340;BME280;46212;50.258;19.062;2023-11-21T02:02:44;97677.97;;;8.01;100.00
53340;BME280;46212;50.258;19.062;2023-11-21T02:05:11;97669.44;;;7.81;100.00
53340;BME280;46212;50.258;19.062;2023-11-21T02:07:41;97674.94;;;7.72;100.00
53340;BME280;46212;50.258;19.062;2023-11-21T02:10:10;97673.09;;;7.78;100.00
53340;BME280;46212;50.258;19.062;2023-11-21T02:12:42;97680.75;;;7.83;100.00
53340;BME280;46212;50.258;19.062;2023-11-21T02:15:10;97682.25;;;7.75;100.00
53340;BME280;46212;50.258;19.062;2023-11-21T02:17:43;97683.47;;;7.65;100.00
53340;BME280;46212;50.258;19.062;2023-11-21T02:20:12;97678.75;;;7.65;100.00
53340;BME280;46212;50.258;19.062;2023-11-21T02:22:41;97671.91;;;7.70;100.00
53340;BME280;46212;50.258;19.062;2023-11-21T02:25:07;97670.50;;;7.74;100.00
53340;BME280;46212;50.258;19.062;2023-11-21T02:27:33;97665.03;;;7.47;100.00
53340;BME280;46212;50.258;19.062;2023-11-21T02:29:58;97676.91;;;7.80;100.00
53340;BME280;46212;50.258;19.062;2023-11-21T02:32:25;97675.69;;;7.72;100.00
53340;BME280;46212;50.258;19.062;2023-11-21T02:34:51;97675.25;;;7.83;100.00
53340;BME280;46212;50.258;19.062;2023-11-21T02:37:16;97670.50;;;7.65;100.00
53340;BME280;46212;50.258;19.062;2023-11-21T02:39:42;97681.66;;;7.62;100.00
53340;BME280;46212;50.258;19.062;2023-11-21T02:42:07;97676.00;;;7.65;100.00
53340;BME280;46212;50.258;19.062;2023-11-21T02:44:33;97674.03;;;7.57;100.00
53340;BME280;46212;50.258;19.062;2023-11-21T02:46:58;97672.34;;;7.41;100.00
53340;BME280;46212;50.258;19.062;2023-11-21T02:49:23;97683.47;;;7.56;100.00
53340;BME280;46212;50.258;19.062;2023-11-21T02:51:49;97688.06;;;7.86;100.00
53340;BME280;46212;50.258;19.062;2023-11-21T02:54:14;97676.00;;;7.47;100.00
53340;BME280;46212;50.258;19.062;2023-11-21T02:56:42;97683.78;;;7.39;100.00
53340;BME280;46212;50.258;19.062;2023-11-21T02:59:07;97690.22;;;7.55;100.00
53340;BME280;46212;50.258;19.062;2023-11-21T03:01:32;97688.69;;;7.54;100.00
53340;BME280;46212;50.258;19.062;2023-11-21T03:03:58;97687.75;;;7.47;100.00
53340;BME280;46212;50.258;19.062;2023-11-21T03:06:23;97688.84;;;7.50;100.00
53340;BME280;46212;50.258;19.062;2023-11-21T03:08:49;97681.34;;;7.51;100.00
53340;BME280;46212;50.258;19.062;2023-11-21T03:11:14;97680.59;;;7.50;100.00
53340;BME280;46212;50.258;19.062;2023-11-21T03:13:41;97689.88;;;7.71;100.00
53340;BME280;46212;50.258;19.062;2023-11-21T03:16:08;97686.22;;;7.65;100.00
53340;BME280;46212;50.258;19.062;2023-11-21T03:18:34;97691.56;;;7.59;100.00
53340;BME280;46212;50.258;19.062;2023-11-21T03:20:59;97698.28;;;7.58;100.00
53340;BME280;46212;50.258;19.062;2023-11-21T03:23:25;97703.34;;;7.60;100.00
53340;BME280;46212;50.258;19.062;2023-11-21T03:25:50;97688.25;;;7.64;100.00
53340;BME280;46212;50.258;19.062;2023-11-21T03:28:15;97704.25;;;7.75;100.00
53340;BME280;46212;50.258;19.062;2023-11-21T03:30:41;97704.09;;;7.60;100.00
53340;BME280;46212;50.258;19.062;2023-11-21T03:33:06;97711.28;;;7.58;100.00
53340;BME280;46212;50.258;19.062;2023-11-21T03:35:33;97703.19;;;7.54;100.00
53340;BME280;46212;50.258;19.062;2023-11-21T03:37:58;97711.56;;;7.51;100.00
53340;BME280;46212;50.258;19.062;2023-11-21T03:40:23;97707.75;;;7.48;100.00
53340;BME280;46212;50.258;19.062;2023-11-21T03:42:49;97717.97;;;7.38;100.00
53340;BME280;46212;50.258;19.062;2023-11-21T03:45:14;97704.25;;;7.38;100.00
53340;BME280;46212;50.258;19.062;2023-11-21T03:47:41;97711.44;;;7.54;100.00
53340;BME280;46212;50.258;19.062;2023-11-21T03:50:07;97707.56;;;7.33;100.00
53340;BME280;46212;50.258;19.062;2023-11-21T03:52:34;97711.09;;;7.43;100.00
53340;BME280;46212;50.258;19.062;2023-11-21T03:55:00;97705.16;;;7.44;100.00
53340;BME280;46212;50.258;19.062;2023-11-21T03:57:26;97694.31;;;7.32;100.00
53340;BME280;46212;50.258;19.062;2023-11-21T03:59:53;97716.59;;;7.61;100.00
53340;BME280;46212;50.258;19.062;2023-11-21T04:02:18;97719.66;;;7.45;100.00
53340;BME280;46212;50.258;19.062;2023-11-21T04:04:43;97705.59;;;7.52;100.00
53340;BME280;46212;50.258;19.062;2023-11-21T04:07:09;97718.13;;;7.62;100.00
53340;BME280;46212;50.258;19.062;2023-11-21T04:09:34;97709.75;;;7.57;100.00
53340;BME280;46212;50.258;19.062;2023-11-21T04:12:01;97712.03;;;7.58;100.00
53340;BME280;46212;50.258;19.062;2023-11-21T04:14:27;97721.78;;;7.32;100.00
53340;BME280;46212;50.258;19.062;2023-11-21T04:16:52;97721.28;;;7.24;100.00
53340;BME280;46212;50.258;19.062;2023-11-21T04:19:18;97720.09;;;7.34;100.00
53340;BME280;46212;50.258;19.062;2023-11-21T04:21:44;97708.22;;;7.46;100.00
53340;BME280;46212;50.258;19.062;2023-11-21T04:24:09;97727.28;;;7.59;100.00
53340;BME280;46212;50.258;19.062;2023-11-21T04:26:35;97725.91;;;7.45;100.00
53340;BME280;46212;50.258;19.062;2023-11-21T04:29:01;97723.31;;;7.42;100.00
53340;BME280;46212;50.258;19.062;2023-11-21T04:31:26;97730.81;;;7.51;100.00
53340;BME280;46212;50.258;19.062;2023-11-21T04:33:52;97728.81;;;7.42;100.00
53340;BME280;46212;50.258;19.062;2023-11-21T04:36:17;97727.44;;;7.46;100.00
53340;BME280;46212;50.258;19.062;2023-11-21T04:38:42;97726.38;;;7.53;100.00
53340;BME280;46212;50.258;19.062;2023-11-21T04:41:09;97722.22;;;7.30;100.00
53340;BME280;46212;50.258;19.062;2023-11-21T04:43:34;97728.19;;;7.29;100.00
53340;BME280;46212;50.258;19.062;2023-11-21T04:46:00;97735.03;;;7.33;100.00
53340;BME280;46212;50.258;19.062;2023-11-21T04:48:27;97738.25;;;7.32;100.00
53340;BME280;46212;50.258;19.062;2023-11-21T04:50:52;97727.56;;;7.34;100.00
53340;BME280;46212;50.258;19.062;2023-11-21T04:53:17;97735.97;;;7.39;100.00
53340;BME280;46212;50.258;19.062;2023-11-21T04:55:43;97731.09;;;7.34;100.00
53340;BME280;46212;50.258;19.062;2023-11-21T04:58:09;97733.81;;;7.25;100.00
53340;BME280;46212;50.258;19.062;2023-11-21T05:00:36;97739.75;;;7.24;100.00
53340;BME280;46212;50.258;19.062;2023-11-21T05:03:02;97727.88;;;7.36;100.00
53340;BME280;46212;50.258;19.062;2023-11-21T05:05:28;97741.59;;;7.36;100.00
53340;BME280;46212;50.258;19.062;2023-11-21T05:07:55;97740.72;;;7.48;100.00
53340;BME280;46212;50.258;19.062;2023-11-21T05:10:20;97745.13;;;7.45;100.00
53340;BME280;46212;50.258;19.062;2023-11-21T05:12:45;97745.31;;;7.42;100.00
53340;BME280;46212;50.258;19.062;2023-11-21T05:15:14;97748.66;;;7.46;100.00
53340;BME280;46212;50.258;19.062;2023-11-21T05:17:40;97747.28;;;7.32;100.00
53340;BME280;46212;50.258;19.062;2023-11-21T05:20:15;97746.66;;;7.37;100.00
53340;BME280;46212;50.258;19.062;2023-11-21T05:22:49;97751.38;;;7.37;100.00
53340;BME280;46212;50.258;19.062;2023-11-21T05:25:15;97753.84;;;7.62;100.00
53340;BME280;46212;50.258;19.062;2023-11-21T05:27:40;97745.19;;;7.64;100.00
53340;BME280;46212;50.258;19.062;2023-11-21T05:30:06;97755.38;;;7.45;100.00
53340;BME280;46212;50.258;19.062;2023-11-21T05:32:35;97748.81;;;7.52;100.00
53340;BME280;46212;50.258;19.062;2023-11-21T05:35:00;97762.72;;;7.48;100.00
53340;BME280;46212;50.258;19.062;2023-11-21T05:37:26;97764.03;;;7.34;100.00
53340;BME280;46212;50.258;19.062;2023-11-21T05:39:53;97756.88;;;7.37;100.00
53340;BME280;46212;50.258;19.062;2023-11-21T05:42:18;97756.56;;;7.35;100.00
53340;BME280;46212;50.258;19.062;2023-11-21T05:44:43;97757.34;;;7.35;100.00
53340;BME280;46212;50.258;19.062;2023-11-21T05:47:09;97770.63;;;7.46;100.00
53340;BME280;46212;50.258;19.062;2023-11-21T05:49:35;97772.72;;;7.33;100.00
53340;BME280;46212;50.258;19.062;2023-11-21T05:52:01;97772.31;;;7.53;100.00
53340;BME280;46212;50.258;19.062;2023-11-21T05:54:26;97778.97;;;7.33;100.00
53340;BME280;46212;50.258;19.062;2023-11-21T05:56:51;97773.69;;;7.48;100.00
53340;BME280;46212;50.258;19.062;2023-11-21T05:59:17;97782.81;;;7.36;100.00
53340;BME280;46212;50.258;19.062;2023-11-21T06:01:42;97780.53;;;7.34;100.00
53340;BME280;46212;50.258;19.062;2023-11-21T06:04:08;97785.38;;;7.30;100.00
53340;BME280;46212;50.258;19.062;2023-11-21T06:06:35;97788.00;;;7.43;100.00
53340;BME280;46212;50.258;19.062;2023-11-21T06:09:00;97795.22;;;7.59;100.00
53340;BME280;46212;50.258;19.062;2023-11-21T06:11:25;97792.00;;;7.42;100.00
53340;BME280;46212;50.258;19.062;2023-11-21T06:13:51;97788.63;;;7.38;100.00
53340;BME280;46212;50.258;19.062;2023-11-21T06:16:18;97795.94;;;7.32;100.00
53340;BME280;46212;50.258;19.062;2023-11-21T06:18:45;97790.41;;;7.23;100.00
53340;BME280;46212;50.258;19.062;2023-11-21T06:21:11;97803.97;;;7.26;100.00
53340;BME280;46212;50.258;19.062;2023-11-21T06:23:36;97810.06;;;7.21;100.00
53340;BME280;46212;50.258;19.062;2023-11-21T06:26:02;97807.94;;;7.16;100.00
53340;BME280;46212;50.258;19.062;2023-11-21T06:28:27;97808.91;;;7.31;100.00
53340;BME280;46212;50.258;19.062;2023-11-21T06:30:52;97807.00;;;7.10;100.00
53340;BME280;46212;50.258;19.062;2023-11-21T06:33:18;97815.88;;;7.23;100.00
53340;BME280;46212;50.258;19.062;2023-11-21T06:35:44;97809.59;;;7.14;100.00
53340;BME280;46212;50.258;19.062;2023-11-21T06:38:10;97813.78;;;7.36;100.00
53340;BME280;46212;50.258;19.062;2023-11-21T06:40:35;97816.50;;;7.27;100.00
53340;BME280;46212;50.258;19.062;2023-11-21T06:43:00;97821.09;;;7.30;100.00
53340;BME280;46212;50.258;19.062;2023-11-21T06:45:26;97818.97;;;7.34;100.00
53340;BME280;46212;50.258;19.062;2023-11-21T06:47:51;97817.47;;;7.42;100.00
53340;BME280;46212;50.258;19.062;2023-11-21T06:50:17;97822.25;;;7.51;100.00
53340;BME280;46212;50.258;19.062;2023-11-21T06:52:42;97810.13;;;7.39;100.00
53340;BME280;46212;50.258;19.062;2023-11-21T06:55:08;97802.16;;;7.23;100.00
53340;BME280;46212;50.258;19.062;2023-11-21T06:57:35;97826.72;;;7.27;100.00
53340;BME280;46212;50.258;19.062;2023-11-21T07:00:00;97808.72;;;7.26;100.00
53340;BME280;46212;50.258;19.062;2023-11-21T07:02:26;97822.16;;;7.33;100.00
53340;BME280;46212;50.258;19.062;2023-11-21T07:04:51;97817.31;;;7.37;100.00
53340;BME280;46212;50.258;19.062;2023-11-21T07:07:18;97816.16;;;7.16;100.00
53340;BME280;46212;50.258;19.062;2023-11-21T07:09:43;97824.91;;;7.33;100.00
53340;BME280;46212;50.258;19.062;2023-11-21T07:12:09;97820.34;;;7.39;100.00
53340;BME280;46212;50.258;19.062;2023-11-21T07:14:36;97823.09;;;7.39;100.00
53340;BME280;46212;50.258;19.062;2023-11-21T07:17:04;97820.66;;;7.32;100.00
53340;BME280;46212;50.258;19.062;2023-11-21T07:19:29;97824.34;;;7.38;100.00
53340;BME280;46212;50.258;19.062;2023-11-21T07:21:56;97845.59;;;7.65;100.00
53340;BME280;46212;50.258;19.062;2023-11-21T07:24:21;97840.22;;;7.52;100.00
53340;BME280;46212;50.258;19.062;2023-11-21T07:26:48;97837.72;;;7.36;100.00
53340;BME280;46212;50.258;19.062;2023-11-21T07:29:14;97841.72;;;7.35;100.00
53340;BME280;46212;50.258;19.062;2023-11-21T07:31:39;97848.16;;;7.50;100.00
53340;BME280;46212;50.258;19.062;2023-11-21T07:34:06;97837.06;;;7.63;100.00
53340;BME280;46212;50.258;19.062;2023-11-21T07:36:32;97836.91;;;7.57;100.00
53340;BME280;46212;50.258;19.062;2023-11-21T07:38:58;97831.72;;;7.68;100.00
53340;BME280;46212;50.258;19.062;2023-11-21T07:41:23;97843.97;;;7.67;100.00
53340;BME280;46212;50.258;19.062;2023-11-21T07:43:49;97836.31;;;7.71;100.00
53340;BME280;46212;50.258;19.062;2023-11-21T07:46:14;97836.03;;;7.87;100.00
53340;BME280;46212;50.258;19.062;2023-11-21T07:48:41;97829.78;;;7.87;100.00
53340;BME280;46212;50.258;19.062;2023-11-21T07:51:07;97836.19;;;7.84;100.00
53340;BME280;46212;50.258;19.062;2023-11-21T07:53:33;97839.69;;;7.75;100.00
53340;BME280;46212;50.258;19.062;2023-11-21T07:56:03;97848.56;;;7.79;100.00
53340;BME280;46212;50.258;19.062;2023-11-21T07:58:29;97836.44;;;7.68;100.00
53340;BME280;46212;50.258;19.062;2023-11-21T08:00:54;97836.78;;;7.70;100.00
53340;BME280;46212;50.258;19.062;2023-11-21T08:03:20;97856.16;;;7.66;100.00
53340;BME280;46212;50.258;19.062;2023-11-21T08:05:46;97834.34;;;7.81;100.00
53340;BME280;46212;50.258;19.062;2023-11-21T08:08:11;97844.25;;;7.69;100.00
53340;BME280;46212;50.258;19.062;2023-11-21T08:10:37;97846.69;;;7.67;100.00
53340;BME280;46212;50.258;19.062;2023-11-21T08:13:04;97844.81;;;7.55;100.00
53340;BME280;46212;50.258;19.062;2023-11-21T08:15:29;97847.13;;;7.57;100.00
53340;BME280;46212;50.258;19.062;2023-11-21T08:17:57;97849.44;;;7.67;100.00
53340;BME280;46212;50.258;19.062;2023-11-21T08:20:24;97851.41;;;7.58;100.00
53340;BME280;46212;50.258;19.062;2023-11-21T08:22:50;97860.22;;;7.43;100.00
53340;BME280;46212;50.258;19.062;2023-11-21T08:25:17;97869.25;;;7.53;100.00
53340;BME280;46212;50.258;19.062;2023-11-21T08:27:45;97875.94;;;7.52;100.00
53340;BME280;46212;50.258;19.062;2023-11-21T08:30:11;97862.97;;;7.53;100.00
53340;BME280;46212;50.258;19.062;2023-11-21T08:32:37;97872.13;;;7.49;100.00
53340;BME280;46212;50.258;19.062;2023-11-21T08:35:02;97867.41;;;7.50;100.00
53340;BME280;46212;50.258;19.062;2023-11-21T08:37:28;97871.72;;;7.60;100.00
53340;BME280;46212;50.258;19.062;2023-11-21T08:39:57;97870.00;;;7.44;100.00
53340;BME280;46212;50.258;19.062;2023-11-21T08:42:22;97870.13;;;7.41;100.00
53340;BME280;46212;50.258;19.062;2023-11-21T08:44:48;97876.84;;;7.49;100.00
53340;BME280;46212;50.258;19.062;2023-11-21T08:47:14;97883.88;;;7.50;100.00
53340;BME280;46212;50.258;19.062;2023-11-21T08:49:39;97885.19;;;7.67;100.00
53340;BME280;46212;50.258;19.062;2023-11-21T08:52:04;97889.41;;;7.59;100.00
53340;BME280;46212;50.258;19.062;2023-11-21T08:54:30;97890.00;;;7.54;100.00
53340;BME280;46212;50.258;19.062;2023-11-21T08:56:56;97894.09;;;7.49;100.00
53340;BME280;46212;50.258;19.062;2023-11-21T08:59:24;97894.31;;;7.64;100.00
53340;BME280;46212;50.258;19.062;2023-11-21T09:01:49;97894.78;;;7.63;100.00
53340;BME280;46212;50.258;19.062;2023-11-21T09:04:14;97890.78;;;7.55;100.00
53340;BME280;46212;50.258;19.062;2023-11-21T09:06:40;97885.34;;;7.73;100.00
53340;BME280;46212;50.258;19.062;2023-11-21T09:09:06;97900.44;;;7.77;100.00
53340;BME280;46212;50.258;19.062;2023-11-21T09:11:32;97892.69;;;7.85;100.00
53340;BME280;46212;50.258;19.062;2023-11-21T09:13:59;97891.97;;;8.02;100.00
53340;BME280;46212;50.258;19.062;2023-11-21T09:16:25;97891.66;;;7.91;100.00
53340;BME280;46212;50.258;19.062;2023-11-21T09:18:51;97894.41;;;8.00;100.00
53340;BME280;46212;50.258;19.062;2023-11-21T09:21:16;97877.63;;;8.08;100.00
53340;BME280;46212;50.258;19.062;2023-11-21T09:23:44;97893.84;;;8.15;100.00
53340;BME280;46212;50.258;19.062;2023-11-21T09:26:09;97883.88;;;8.08;100.00
53340;BME280;46212;50.258;19.062;2023-11-21T09:28:35;97887.56;;;8.05;100.00
53340;BME280;46212;50.258;19.062;2023-11-21T09:31:03;97894.03;;;8.29;100.00
53340;BME280;46212;50.258;19.062;2023-11-21T09:33:30;97881.91;;;8.27;100.00
53340;BME280;46212;50.258;19.062;2023-11-21T09:35:56;97881.88;;;8.09;100.00
53340;BME280;46212;50.258;19.062;2023-11-21T09:38:22;97880.81;;;8.15;100.00
53340;BME280;46212;50.258;19.062;2023-11-21T09:40:47;97892.16;;;8.26;100.00
53340;BME280;46212;50.258;19.062;2023-11-21T09:43:16;97889.59;;;8.32;100.00
53340;BME280;46212;50.258;19.062;2023-11-21T09:45:45;97885.75;;;8.38;100.00
53340;BME280;46212;50.258;19.062;2023-11-21T09:48:11;97896.78;;;8.47;100.00
53340;BME280;46212;50.258;19.062;2023-11-21T09:50:37;97891.88;;;8.61;100.00
53340;BME280;46212;50.258;19.062;2023-11-21T09:53:17;97888.34;;;8.69;100.00
53340;BME280;46212;50.258;19.062;2023-11-21T09:55:44;97894.78;;;8.66;98.52
53340;BME280;46212;50.258;19.062;2023-11-21T09:58:10;97892.34;;;8.59;99.02
53340;BME280;46212;50.258;19.062;2023-11-21T10:00:43;97886.38;;;8.70;98.56
53340;BME280;46212;50.258;19.062;2023-11-21T10:03:10;97896.00;;;8.65;99.73
53340;BME280;46212;50.258;19.062;2023-11-21T10:05:36;97885.44;;;8.73;98.97
53340;BME280;46212;50.258;19.062;2023-11-21T10:08:07;97896.31;;;8.58;98.62
53340;BME280;46212;50.258;19.062;2023-11-21T10:10:32;97893.25;;;8.74;97.77
53340;BME280;46212;50.258;19.062;2023-11-21T10:13:01;97886.38;;;8.70;97.50
53340;BME280;46212;50.258;19.062;2023-11-21T10:15:28;97883.13;;;8.89;97.22
53340;BME280;46212;50.258;19.062;2023-11-21T10:17:55;97893.53;;;8.76;97.75
53340;BME280;46212;50.258;19.062;2023-11-21T10:20:20;97879.34;;;8.60;97.91
53340;BME280;46212;50.258;19.062;2023-11-21T10:22:46;97888.84;;;8.59;97.78
53340;BME280;46212;50.258;19.062;2023-11-21T10:25:12;97889.44;;;8.72;97.28
53340;BME280;46212;50.258;19.062;2023-11-21T10:27:40;97892.03;;;8.39;97.42
53340;BME280;46212;50.258;19.062;2023-11-21T10:30:06;97877.38;;;8.33;97.54
53340;BME280;46212;50.258;19.062;2023-11-21T10:32:32;97887.44;;;8.45;98.05
53340;BME280;46212;50.258;19.062;2023-11-21T10:35:01;97881.47;;;8.37;97.65
53340;BME280;46212;50.258;19.062;2023-11-21T10:37:32;97888.81;;;8.40;97.91
53340;BME280;46212;50.258;19.062;2023-11-21T10:40:00;97890.19;;;8.63;97.32
53340;BME280;46212;50.258;19.062;2023-11-21T10:42:25;97884.69;;;8.45;97.28
53340;BME280;46212;50.258;19.062;2023-11-21T10:44:55;97895.09;;;8.59;97.77
53340;BME280;46212;50.258;19.062;2023-11-21T10:47:21;97888.84;;;8.49;96.97
53340;BME280;46212;50.258;19.062;2023-11-21T10:49:51;97895.41;;;8.34;96.89
53340;BME280;46212;50.258;19.062;2023-11-21T10:52:21;97897.09;;;8.49;95.62
53340;BME280;46212;50.258;19.062;2023-11-21T10:54:47;97895.72;;;8.36;95.34
53340;BME280;46212;50.258;19.062;2023-11-21T10:57:17;97904.50;;;8.22;94.15
53340;BME280;46212;50.258;19.062;2023-11-21T10:59:47;97900.69;;;8.10;94.72
53340;BME280;46212;50.258;19.062;2023-11-21T11:02:23;97884.19;;;8.01;95.52
53340;BME280;46212;50.258;19.062;2023-11-21T11:04:54;97881.59;;;8.07;95.00
53340;BME280;46212;50.258;19.062;2023-11-21T11:07:47;97893.09;;;8.32;94.50
53340;BME280;46212;50.258;19.062;2023-11-21T11:10:21;97898.44;;;8.81;92.88
53340;BME280;46212;50.258;19.062;2023-11-21T11:12:48;97903.34;;;8.59;91.69
53340;BME280;46212;50.258;19.062;2023-11-21T11:15:15;97900.75;;;8.74;91.47
53340;BME280;46212;50.258;19.062;2023-11-21T11:17:41;97907.00;;;8.74;92.09
53340;BME280;46212;50.258;19.062;2023-11-21T11:20:08;97902.44;;;8.71;92.27
53340;BME280;46212;50.258;19.062;2023-11-21T11:22:42;97894.44;;;8.82;91.51
53340;BME280;46212;50.258;19.062;2023-11-21T11:25:21;97897.69;;;8.81;90.54
53340;BME280;46212;50.258;19.062;2023-11-21T11:30:53;97893.59;;;9.27;90.06
53340;BME280;46212;50.258;19.062;2023-11-21T11:33:34;97900.56;;;9.46;88.44
53340;BME280;46212;50.258;19.062;2023-11-21T11:36:06;97909.97;;;9.31;88.70
53340;BME280;46212;50.258;19.062;2023-11-21T11:38:36;97901.13;;;9.18;89.97
53340;BME280;46212;50.258;19.062;2023-11-21T11:41:04;97912.00;;;9.12;90.31
53340;BME280;46212;50.258;19.062;2023-11-21T11:43:30;97899.38;;;8.78;91.48
53340;BME280;46212;50.258;19.062;2023-11-21T11:45:58;97902.09;;;8.69;91.52
53340;BME280;46212;50.258;19.062;2023-11-21T11:48:25;97902.13;;;8.42;92.69
53340;BME280;46212;50.258;19.062;2023-11-21T11:51:14;97908.53;;;8.57;93.02
53340;BME280;46212;50.258;19.062;2023-11-21T11:53:44;97903.63;;;8.88;91.27
53340;BME280;46212;50.258;19.062;2023-11-21T11:56:21;97895.84;;;8.60;90.42
53340;BME280;46212;50.258;19.062;2023-11-21T11:58:49;97903.19;;;8.63;91.66
53340;BME280;46212;50.258;19.062;2023-11-21T12:01:21;97905.03;;;8.47;92.13
53340;BME280;46212;50.258;19.062;2023-11-21T12:06:51;97904.56;;;8.58;92.26
53340;BME280;46212;50.258;19.062;2023-11-21T12:09:20;97908.84;;;8.50;93.06
53340;BME280;46212;50.258;19.062;2023-11-21T12:11:47;97913.38;;;8.26;93.67
53340;BME280;46212;50.258;19.062;2023-11-21T12:14:16;97902.91;;;8.42;93.74
53340;BME280;46212;50.258;19.062;2023-11-21T12:16:42;97911.13;;;8.70;93.32
53340;BME280;46212;50.258;19.062;2023-11-21T12:19:09;97907.16;;;8.71;93.04
53340;BME280;46212;50.258;19.062;2023-11-21T12:21:36;97903.34;;;8.59;93.67
53340;BME280;46212;50.258;19.062;2023-11-21T12:24:01;97906.69;;;8.63;93.08
53340;BME280;46212;50.258;19.062;2023-11-21T12:26:27;97907.00;;;8.47;93.93
53340;BME280;46212;50.258;19.062;2023-11-21T12:28:53;97901.22;;;8.36;93.85
53340;BME280;46212;50.258;19.062;2023-11-21T12:31:24;97895.09;;;8.41;94.81
53340;BME280;46212;50.258;19.062;2023-11-21T12:33:50;97906.09;;;8.50;93.89
53340;BME280;46212;50.258;19.062;2023-11-21T12:36:16;97899.34;;;8.15;94.51
53340;BME280;46212;50.258;19.062;2023-11-21T12:38:41;97915.88;;;8.33;94.46
53340;BME280;46212;50.258;19.062;2023-11-21T12:41:07;97904.56;;;8.31;93.52
53340;BME280;46212;50.258;19.062;2023-11-21T12:43:33;97917.06;;;8.23;94.82
53340;BME280;46212;50.258;19.062;2023-11-21T12:48:32;97913.03;;;8.06;97.39
53340;BME280;46212;50.258;19.062;2023-11-21T12:50:57;97921.75;;;7.95;97.33
53340;BME280;46212;50.258;19.062;2023-11-21T12:53:25;97912.25;;;7.96;97.85
53340;BME280;46212;50.258;19.062;2023-11-21T12:55:51;97915.19;;;7.92;97.48
53340;BME280;46212;50.258;19.062;2023-11-21T12:58:16;97924.63;;;7.91;98.20